Terminal Aerodrome Forecast
Issued by NWS Shreveport, LA

Home | Current Version | Previous Version | Text Only | Print | Product List | Glossary On
Versions: 1 2 3 4 5 6 7 8 9 10 11 12 13 14 15 16 17 18 19
000
FTUS44 KSHV 300521
TAFTXK
TAF
KTXK 300521Z 3006/0106 18014G22KT P6SM BKN020 OVC030
      TEMPO 3006/3008 -TSRA SCT020 OVC030CB
     FM300800 21012KT P6SM -SHRA OVC020
     FM301200 24012KT P6SM OVC030
      TEMPO 3012/3015 23012KT SCT100
     FM301500 24012KT P6SM OVC040=

USA.gov is the U.S. government's official web portal to all federal, state and local government web resources and services.